Time;durP1;ratioP1;P1;durP2;ratioP2;P2;SDS_P1;SDS_P2;PMS_P1;PMS_P2;Temp;Humidity;BMP_temperature;BMP_pressure;BME280_temperature;BME280_humidity;BME280_pressure;Samples;Min_cycle;Max_cycle;Signal;HPM_P1;HPM_P2
2022/12/17 13:07:47;;;;;;;35.23;20.90;;;;;;;-2.52;71.33;96232.22;4963134;28;20227;-82
2022/12/17 13:10:27;;;;;;;31.87;18.53;;;;;;;-2.22;69.79;96231.16;4936269;28;20927;-82
2022/12/17 13:12:53;;;;;;;26.50;17.47;;;;;;;-2.40;69.99;96235.19;4943693;28;20190;-82
2022/12/17 13:15:29;;;;;;;26.83;16.13;;;;;;;-2.23;69.31;96221.03;4944943;28;20229;-84
2022/12/17 13:17:58;;;;;;;26.37;16.90;;;;;;;-2.31;70.21;96223.84;4961295;28;20233;-82
2022/12/17 13:20:28;;;;;;;24.53;15.80;;;;;;;-2.26;69.87;96206.72;4959104;28;20670;-82
2022/12/17 13:23:08;;;;;;;28.30;15.97;;;;;;;-2.06;69.84;96211.94;4942554;28;20594;-82
2022/12/17 13:25:34;;;;;;;26.70;15.87;;;;;;;-2.08;69.64;96207.78;4977593;28;20251;-83
2022/12/17 13:28:00;;;;;;;22.83;13.73;;;;;;;-2.18;68.90;96214.91;4959900;28;20653;-82
2022/12/17 13:30:31;;;;;;;19.40;13.47;;;;;;;-2.06;67.97;96211.09;4945608;28;20640;-82
2022/12/17 13:33:21;;;;;;;20.57;13.07;;;;;;;-2.01;67.72;96206.69;4978721;28;20255;-82
2022/12/17 13:35:59;;;;;;;22.07;14.47;;;;;;;-2.05;68.02;96202.56;4935174;28;20218;-83
2022/12/17 13:38:53;;;;;;;23.47;15.27;;;;;;;-2.11;69.22;96200.28;4958886;28;20204;-81
2022/12/17 13:41:20;;;;;;;23.60;15.53;;;;;;;-2.16;68.67;96202.13;4939504;28;20220;-83
2022/12/17 13:43:49;;;;;;;23.17;15.00;;;;;;;-2.18;69.48;96204.75;4958143;28;20196;-81
2022/12/17 13:46:22;;;;;;;22.13;15.57;;;;;;;-2.32;70.02;96206.94;4942383;28;20303;-81
2022/12/17 13:48:53;;;;;;;25.00;15.83;;;;;;;-2.23;69.69;96213.41;4959546;28;20197;-81
2022/12/17 13:51:20;;;;;;;26.07;15.40;;;;;;;-2.36;68.70;96230.84;4940124;28;20632;-83
2022/12/17 13:53:57;;;;;;;25.77;15.33;;;;;;;-2.48;69.80;96232.06;4940221;28;20223;-81
2022/12/17 13:56:24;;;;;;;27.73;16.43;;;;;;;-2.45;70.13;96233.69;4940678;28;20219;-81
2022/12/17 13:58:51;;;;;;;26.10;16.80;;;;;;;-2.46;70.40;96225.22;4938426;28;20204;-82
2022/12/17 14:01:16;;;;;;;28.47;16.97;;;;;;;-2.45;70.16;96237.06;4942476;28;20308;-82
2022/12/17 14:03:48;;;;;;;25.93;16.57;;;;;;;-2.52;69.94;96237.31;4959029;28;20681;-83
2022/12/17 14:06:13;;;;;;;28.93;17.20;;;;;;;-2.65;71.28;96237.75;4958560;28;20222;-82
2022/12/17 14:08:39;;;;;;;30.93;17.93;;;;;;;-2.77;71.27;96245.75;4959590;28;20220;-82
2022/12/17 14:13:49;;;;;;;28.87;17.23;;;;;;;-2.68;71.11;96249.72;4961432;28;20200;-82
2022/12/17 14:16:18;;;;;;;27.40;17.90;;;;;;;-2.80;71.16;96250.94;4957915;28;20229;-81
2022/12/17 14:18:51;;;;;;;27.30;17.57;;;;;;;-2.82;72.32;96256.97;4956241;28;20229;-84
2022/12/17 14:21:17;;;;;;;32.93;19.20;;;;;;;-2.97;71.97;96258.28;4938677;28;20204;-83
2022/12/17 14:23:43;;;;;;;31.93;18.07;;;;;;;-3.10;71.47;96257.81;4958541;28;20347;-83
2022/12/17 14:26:10;;;;;;;31.57;19.80;;;;;;;-3.08;72.31;96257.81;4958297;28;20259;-82
2022/12/17 14:28:49;;;;;;;33.20;19.73;;;;;;;-3.16;73.00;96258.03;4956122;28;20585;-82
2022/12/17 14:31:27;;;;;;;34.80;20.03;;;;;;;-3.29;72.49;96260.09;4958722;28;20531;-83
2022/12/17 14:34:08;;;;;;;32.47;19.47;;;;;;;-3.32;72.92;96257.66;4937827;28;20196;-82
2022/12/17 14:36:35;;;;;;;33.27;20.67;;;;;;;-3.37;73.16;96256.97;4956086;28;20609;-83
2022/12/17 14:39:10;;;;;;;35.70;21.77;;;;;;;-3.44;73.69;96258.06;4957239;28;20221;-82
2022/12/17 14:44:26;;;;;;;36.63;22.97;;;;;;;-3.62;74.12;96258.56;4960996;28;20252;-85
2022/12/17 14:47:06;;;;;;;38.87;23.20;;;;;;;-3.76;74.72;96256.44;4939026;28;20213;-84
2022/12/17 14:49:31;;;;;;;32.77;21.47;;;;;;;-3.79;75.26;96254.84;4957327;28;20184;-81
2022/12/17 14:51:58;;;;;;;30.80;19.77;;;;;;;-3.87;75.38;96251.69;4957552;28;20242;-83
2022/12/17 14:54:30;;;;;;;35.73;20.67;;;;;;;-4.04;75.93;96261.47;4959207;28;20185;-83
2022/12/17 14:56:57;;;;;;;33.67;19.83;;;;;;;-4.01;76.04;96259.66;4958787;28;20220;-82
2022/12/17 14:59:29;;;;;;;32.73;19.93;;;;;;;-4.05;76.31;96259.81;4937491;28;20200;-85
2022/12/17 15:01:55;;;;;;;36.27;23.50;;;;;;;-4.08;75.91;96258.16;4975443;28;20625;-82
2022/12/17 15:04:20;;;;;;;34.60;21.17;;;;;;;-4.24;75.97;96262.00;4943995;28;20283;-83
2022/12/17 15:06:46;;;;;;;35.63;20.90;;;;;;;-4.31;76.62;96268.13;4956763;28;20281;-82
2022/12/17 15:09:12;;;;;;;34.37;20.10;;;;;;;-4.32;77.23;96267.28;4932644;28;20196;-83
2022/12/17 15:11:37;;;;;;;39.57;21.20;;;;;;;-4.42;78.76;96259.94;4955344;28;20196;-84
2022/12/17 15:14:03;;;;;;;37.73;22.27;;;;;;;-4.57;78.83;96266.25;4958822;28;20192;-83
2022/12/17 15:16:28;;;;;;;37.77;22.03;;;;;;;-4.63;78.78;96266.41;4936552;28;20228;-82
2022/12/17 15:18:53;;;;;;;43.03;24.30;;;;;;;-4.66;79.61;96279.16;4934047;28;20203;-83
2022/12/17 15:21:19;;;;;;;46.27;26.67;;;;;;;-4.69;79.65;96267.38;4924344;28;20227;-84
2022/12/17 15:23:45;;;;;;;35.60;23.27;;;;;;;-4.78;80.49;96265.06;4940948;28;20192;-84
2022/12/17 15:26:12;;;;;;;41.80;23.30;;;;;;;-4.85;79.77;96266.94;4930318;28;20248;-83
2022/12/17 15:28:38;;;;;;;35.90;21.70;;;;;;;-4.89;80.09;96267.88;4957430;28;20583;-83
2022/12/17 15:31:03;;;;;;;34.30;20.53;;;;;;;-4.81;80.24;96269.41;4939967;28;20196;-82
2022/12/17 15:33:28;;;;;;;38.60;20.90;;;;;;;-4.87;80.13;96273.72;4939107;28;20217;-83
2022/12/17 15:35:53;;;;;;;37.07;19.63;;;;;;;-4.98;79.83;96275.69;4940486;28;20212;-82
2022/12/17 15:38:19;;;;;;;38.80;22.57;;;;;;;-5.07;80.55;96270.84;4956467;28;20211;-82
2022/12/17 15:40:44;;;;;;;41.10;22.03;;;;;;;-5.13;81.10;96273.50;4956587;28;20687;-83
2022/12/17 15:43:10;;;;;;;39.27;22.60;;;;;;;-5.13;81.24;96283.66;4973581;28;20200;-84
2022/12/17 15:45:43;;;;;;;43.57;23.77;;;;;;;-5.15;80.92;96282.84;4941266;28;20212;-83
2022/12/17 15:48:09;;;;;;;38.40;25.13;;;;;;;-5.20;81.15;96282.97;4974811;28;20663;-83
2022/12/17 15:50:35;;;;;;;41.50;25.20;;;;;;;-5.15;81.39;96273.56;4957294;28;20196;-83
2022/12/17 15:53:00;;;;;;;39.53;24.37;;;;;;;-5.25;82.10;96272.09;4940753;28;20193;-82
2022/12/17 15:55:26;;;;;;;41.70;24.27;;;;;;;-5.24;82.44;96280.53;4956597;28;20295;-83
2022/12/17 15:57:51;;;;;;;44.90;25.53;;;;;;;-5.18;82.42;96281.22;4957344;28;20196;-84
2022/12/17 16:00:17;;;;;;;50.60;29.77;;;;;;;-5.19;82.41;96289.69;4957997;28;20314;-82
2022/12/17 16:02:42;;;;;;;55.37;28.47;;;;;;;-5.12;83.69;96295.47;4936611;28;20752;-81
2022/12/17 16:05:08;;;;;;;49.83;26.07;;;;;;;-5.23;83.09;96298.22;4959642;28;20703;-81
2022/12/17 16:07:33;;;;;;;61.53;30.80;;;;;;;-5.20;82.63;96299.88;4960732;28;20193;-81
2022/12/17 16:09:59;;;;;;;59.30;30.83;;;;;;;-5.21;82.99;96298.22;4960816;28;20279;-82
2022/12/17 16:12:24;;;;;;;61.10;29.97;;;;;;;-5.23;82.82;96308.34;4963121;28;20653;-81
2022/12/17 16:14:50;;;;;;;48.13;26.00;;;;;;;-5.33;82.60;96303.53;4942774;28;20208;-82
2022/12/17 16:17:15;;;;;;;40.13;23.87;;;;;;;-5.30;82.91;96300.91;4935390;28;20197;-81
2022/12/17 16:19:40;;;;;;;44.53;25.67;;;;;;;-5.39;82.80;96291.00;4929326;28;20248;-82
2022/12/17 16:22:06;;;;;;;45.90;26.50;;;;;;;-5.33;84.08;96298.47;4934792;28;20213;-78
2022/12/17 16:24:31;;;;;;;43.17;24.77;;;;;;;-5.37;83.46;96291.81;4978513;28;20199;-81
2022/12/17 16:26:56;;;;;;;46.63;25.87;;;;;;;-5.38;83.89;96290.16;4956231;28;20211;-81
2022/12/17 16:29:22;;;;;;;45.60;25.37;;;;;;;-5.49;83.94;96287.81;4939275;28;20204;-82
2022/12/17 16:31:50;;;;;;;49.23;26.03;;;;;;;-5.44;84.04;96286.88;4958112;28;20579;-81
2022/12/17 16:34:16;;;;;;;49.37;26.07;;;;;;;-5.34;84.11;96281.59;4956756;28;20192;-82
2022/12/17 16:36:41;;;;;;;41.77;23.07;;;;;;;-5.34;83.48;96281.59;4937543;28;20251;-82
2022/12/17 16:39:07;;;;;;;43.63;23.20;;;;;;;-5.45;82.61;96285.22;4953416;28;20212;-80
2022/12/17 16:41:32;;;;;;;42.43;23.50;;;;;;;-5.47;83.44;96291.19;4967354;28;20236;-80
2022/12/17 16:43:58;;;;;;;43.83;23.97;;;;;;;-5.57;83.62;96290.53;4954649;28;20625;-80
2022/12/17 16:46:29;;;;;;;46.23;24.63;;;;;;;-5.57;84.51;96295.59;4934693;28;20744;-80
2022/12/17 16:48:57;;;;;;;43.67;23.70;;;;;;;-5.52;84.06;96296.34;4945045;28;20180;-81
2022/12/17 16:51:25;;;;;;;50.57;25.70;;;;;;;-5.56;85.00;96297.28;4938423;28;20193;-80
2022/12/17 16:53:50;;;;;;;49.87;27.23;;;;;;;-5.47;84.53;96301.31;4941113;28;20205;-81
2022/12/17 16:56:17;;;;;;;50.63;28.07;;;;;;;-5.46;84.96;96302.97;4959829;28;20228;-81
2022/12/17 16:58:42;;;;;;;47.07;27.77;;;;;;;-5.44;84.71;96301.22;4941815;28;20192;-81
2022/12/17 17:01:09;;;;;;;50.17;28.20;;;;;;;-5.46;85.28;96302.97;4949589;28;20195;-81
2022/12/17 17:03:38;;;;;;;49.87;26.77;;;;;;;-5.51;84.96;96303.06;4982846;28;20200;-81
2022/12/17 17:06:03;;;;;;;47.10;26.40;;;;;;;-5.55;84.53;96301.47;4960422;28;20706;-82
2022/12/17 17:08:28;;;;;;;51.30;27.07;;;;;;;-5.53;84.86;96303.97;4947795;28;20198;-81
2022/12/17 17:10:54;;;;;;;51.80;28.57;;;;;;;-5.59;84.80;96309.13;4947821;28;20200;-83
2022/12/17 17:13:19;;;;;;;49.37;27.40;;;;;;;-5.60;85.25;96312.53;4948317;28;20250;-81
2022/12/17 17:15:44;;;;;;;48.37;28.30;;;;;;;-5.60;84.63;96310.84;4961767;28;20224;-81
2022/12/17 17:18:10;;;;;;;53.13;32.00;;;;;;;-5.68;84.20;96317.75;4944581;28;20196;-80
2022/12/17 17:20:35;;;;;;;52.07;30.33;;;;;;;-5.73;84.31;96325.47;4959119;28;20299;-82
2022/12/17 17:23:01;;;;;;;43.17;25.33;;;;;;;-5.70;85.02;96316.97;4938251;28;20209;-81
2022/12/17 17:25:27;;;;;;;45.63;25.13;;;;;;;-5.77;83.93;96311.19;4958811;28;20328;-81
2022/12/17 17:27:52;;;;;;;42.53;23.53;;;;;;;-5.79;83.85;96322.22;4935996;28;20252;-82
2022/12/17 17:30:17;;;;;;;42.60;23.37;;;;;;;-5.73;84.49;96329.69;4960680;28;20188;-80
2022/12/17 17:32:43;;;;;;;39.03;21.70;;;;;;;-5.72;83.93;96332.19;4939702;28;20565;-82
2022/12/17 17:35:08;;;;;;;44.00;22.87;;;;;;;-5.72;84.34;96326.28;4932699;28;20216;-81
2022/12/17 17:37:34;;;;;;;44.73;24.37;;;;;;;-5.73;83.98;96325.47;4943976;28;20200;-81
2022/12/17 17:39:59;;;;;;;41.97;22.50;;;;;;;-5.72;84.04;96323.75;4951764;28;20189;-80
2022/12/17 17:42:24;;;;;;;48.40;23.37;;;;;;;-5.71;84.43;96328.78;4978826;28;20196;-80
2022/12/17 17:44:50;;;;;;;45.40;23.70;;;;;;;-5.73;83.97;96330.50;4929645;28;20704;-82
2022/12/17 17:47:15;;;;;;;38.40;21.53;;;;;;;-5.72;83.80;96332.19;4957270;28;20181;-83
2022/12/17 17:49:41;;;;;;;41.60;21.97;;;;;;;-5.73;82.89;96339.81;4960498;28;20195;-82
2022/12/17 17:52:06;;;;;;;40.77;21.70;;;;;;;-5.85;83.30;96329.91;4959425;28;20185;-82
2022/12/17 17:54:31;;;;;;;35.53;19.97;;;;;;;-5.76;83.56;96332.25;4936083;28;20343;-83
2022/12/17 17:56:56;;;;;;;44.67;22.07;;;;;;;-5.81;82.78;96324.78;4933780;28;20205;-82
2022/12/17 17:59:22;;;;;;;37.20;22.63;;;;;;;-5.86;82.42;96328.25;4960177;28;20192;-82
2022/12/17 18:01:49;;;;;;;41.17;25.53;;;;;;;-5.86;82.94;96329.06;4955838;28;20216;-82
2022/12/17 18:04:17;;;;;;;44.87;26.43;;;;;;;-5.88;82.79;96322.38;4943344;28;20648;-82
2022/12/17 18:06:44;;;;;;;46.87;27.50;;;;;;;-5.92;82.70;96325.84;4958187;28;20575;-83
2022/12/17 18:09:10;;;;;;;47.13;28.30;;;;;;;-5.88;82.89;96325.75;4962690;28;20601;-84
2022/12/17 18:11:36;;;;;;;46.53;25.83;;;;;;;-5.90;82.92;96316.56;4938137;29;20187;-85
2022/12/17 18:14:04;;;;;;;42.63;25.33;;;;;;;-5.94;83.22;96328.41;4958078;28;20192;-82
2022/12/17 18:16:43;;;;;;;41.50;23.27;;;;;;;-6.04;82.46;96335.34;4958919;28;20212;-82
2022/12/17 18:19:14;;;;;;;42.93;23.93;;;;;;;-5.96;83.07;96336.91;4958518;28;20684;-82
2022/12/17 18:21:40;;;;;;;53.90;27.30;;;;;;;-5.89;82.73;96343.50;4945704;28;20751;-84
2022/12/17 18:24:10;;;;;;;41.07;23.70;;;;;;;-5.96;82.13;96339.44;4945823;28;20188;-83
2022/12/17 18:26:38;;;;;;;49.73;27.13;;;;;;;-6.00;82.94;96342.03;4976686;28;20258;-83
2022/12/17 18:29:11;;;;;;;52.20;27.30;;;;;;;-5.97;83.12;96341.13;4942859;28;20617;-81
2022/12/17 18:31:37;;;;;;;47.90;26.37;;;;;;;-5.97;83.28;96342.84;4941177;28;20201;-81
2022/12/17 18:34:03;;;;;;;45.70;23.93;;;;;;;-6.02;82.82;96348.78;4962085;28;20564;-82
2022/12/17 18:36:32;;;;;;;47.03;25.47;;;;;;;-6.06;83.01;96357.31;4959536;28;20241;-84
2022/12/17 18:39:06;;;;;;;50.00;26.50;;;;;;;-6.16;82.37;96348.22;4943824;28;20540;-84
2022/12/17 18:44:16;;;;;;;44.37;24.37;;;;;;;-6.05;83.05;96358.97;4964692;28;20195;-82
2022/12/17 18:46:41;;;;;;;56.77;32.17;;;;;;;-6.06;82.40;96364.06;4959981;28;20208;-83
2022/12/17 18:49:09;;;;;;;50.50;29.67;;;;;;;-6.09;82.45;96364.13;4962436;28;20202;-82
2022/12/17 18:51:36;;;;;;;74.70;41.57;;;;;;;-6.06;82.59;96377.53;4961989;28;20185;-81
2022/12/17 18:54:03;;;;;;;61.27;34.63;;;;;;;-6.10;82.23;96375.91;4943301;28;20261;-82
2022/12/17 18:56:29;;;;;;;63.23;31.37;;;;;;;-6.25;82.87;96377.91;4941074;29;20237;-82
2022/12/17 18:58:55;;;;;;;59.13;35.73;;;;;;;-6.14;82.80;96379.38;4962440;28;20193;-80
2022/12/17 19:01:29;;;;;;;58.10;33.13;;;;;;;-6.20;82.88;96379.47;4947943;28;20207;-83
2022/12/17 19:03:54;;;;;;;54.00;27.70;;;;;;;-6.08;82.52;96383.50;4938202;29;20707;-82
2022/12/17 19:06:20;;;;;;;48.90;26.27;;;;;;;-6.12;82.51;96380.16;4935241;28;20246;-83
2022/12/17 19:08:46;;;;;;;44.97;25.77;;;;;;;-6.15;83.21;96385.28;4961124;28;20254;-81
2022/12/17 19:11:13;;;;;;;44.60;24.63;;;;;;;-6.15;83.11;96387.81;4959573;28;20185;-82
2022/12/17 19:13:38;;;;;;;38.60;23.87;;;;;;;-6.18;82.81;96385.34;4960587;28;20198;-82
2022/12/17 19:16:05;;;;;;;40.90;23.23;;;;;;;-6.17;83.20;96384.50;4958889;28;20220;-82
2022/12/17 19:18:30;;;;;;;38.57;22.17;;;;;;;-6.16;83.23;96388.69;4977535;28;20188;-81
2022/12/17 19:20:56;;;;;;;40.87;22.87;;;;;;;-6.13;83.39;96390.31;4944158;28;20191;-80
2022/12/17 19:23:21;;;;;;;43.13;23.47;;;;;;;-6.16;83.92;96391.22;4955701;28;20589;-80
2022/12/17 19:25:47;;;;;;;37.23;21.97;;;;;;;-6.13;84.21;96396.19;4958716;28;20219;-81
2022/12/17 19:28:12;;;;;;;37.00;21.33;;;;;;;-6.13;83.85;96392.84;4943841;28;20196;-83
2022/12/17 19:30:37;;;;;;;36.33;21.30;;;;;;;-6.14;84.35;96393.72;4944747;28;20195;-81
2022/12/17 19:33:06;;;;;;;33.63;18.93;;;;;;;-6.17;84.19;96392.06;4943843;28;20548;-81
2022/12/17 19:35:34;;;;;;;35.07;19.97;;;;;;;-6.02;85.06;96396.84;4941211;28;20240;-81
2022/12/17 19:37:59;;;;;;;37.53;21.47;;;;;;;-6.03;84.17;96402.75;4957170;28;20202;-81
2022/12/17 19:40:24;;;;;;;38.97;21.67;;;;;;;-6.00;85.20;96406.97;4943912;28;20195;-82
2022/12/17 19:42:50;;;;;;;36.80;22.07;;;;;;;-6.06;85.43;96405.34;4957372;28;20350;-80
2022/12/17 19:45:15;;;;;;;39.57;22.67;;;;;;;-6.00;85.00;96406.97;4957205;28;20738;-81
2022/12/17 19:47:40;;;;;;;37.67;22.03;;;;;;;-6.03;84.73;96402.75;4943670;28;20188;-82
2022/12/17 19:50:06;;;;;;;34.97;20.60;;;;;;;-5.98;84.82;96397.63;4958231;28;20202;-80
2022/12/17 19:52:31;;;;;;;39.20;22.40;;;;;;;-5.98;85.16;96389.22;4956315;28;20741;-84
2022/12/17 19:54:56;;;;;;;44.57;23.97;;;;;;;-6.03;84.61;96384.22;4959771;28;20820;-82
2022/12/17 19:57:21;;;;;;;37.17;21.30;;;;;;;-6.04;85.31;96387.63;4940696;28;20200;-81
2022/12/17 19:59:47;;;;;;;41.10;21.63;;;;;;;-6.07;85.36;96386.00;4938072;28;20216;-82
2022/12/17 20:02:14;;;;;;;37.73;21.00;;;;;;;-6.00;85.16;96390.09;4945787;28;20239;-81
2022/12/17 20:04:39;;;;;;;33.47;20.47;;;;;;;-6.05;84.96;96386.78;4943868;28;20202;-82
2022/12/17 20:07:04;;;;;;;35.27;21.13;;;;;;;-5.96;85.51;96392.53;4961990;28;20196;-81
2022/12/17 20:09:30;;;;;;;37.13;20.17;;;;;;;-5.94;85.97;96386.59;4961838;28;20196;-84
2022/12/17 20:11:55;;;;;;;33.23;21.40;;;;;;;-5.96;85.10;96390.84;4962255;28;20188;-85
2022/12/17 20:14:28;;;;;;;34.27;21.57;;;;;;;-5.96;85.11;96392.53;4936311;28;20199;-83
2022/12/17 20:16:56;;;;;;;38.60;22.20;;;;;;;-6.05;85.12;96399.44;4963154;28;20837;-85
2022/12/17 20:19:23;;;;;;;36.90;21.50;;;;;;;-6.03;84.88;96392.66;4962821;28;20196;-84
2022/12/17 20:21:49;;;;;;;40.17;20.90;;;;;;;-6.06;84.80;96394.41;4962807;28;20255;-83
2022/12/17 20:24:15;;;;;;;36.17;20.03;;;;;;;-6.01;84.92;96385.88;4962157;28;20184;-83
2022/12/17 20:26:41;;;;;;;37.30;20.13;;;;;;;-6.08;85.49;96384.31;4959193;28;20594;-84
2022/12/17 20:29:07;;;;;;;38.23;20.50;;;;;;;-6.06;85.04;96384.28;4938946;28;20185;-82
2022/12/17 20:31:33;;;;;;;33.63;20.43;;;;;;;-6.06;83.97;96376.72;4934082;28;20211;-83
2022/12/17 20:34:02;;;;;;;39.97;21.53;;;;;;;-6.08;85.16;96384.31;4962493;28;20716;-83
2022/12/17 20:36:28;;;;;;;37.43;19.73;;;;;;;-6.06;85.59;96385.13;4941261;28;20232;-83
2022/12/17 20:38:54;;;;;;;38.53;21.57;;;;;;;-6.09;85.26;96377.59;4958212;28;20347;-82
2022/12/17 20:41:22;;;;;;;35.93;20.60;;;;;;;-6.07;85.26;96380.94;4961403;28;20809;-83
2022/12/17 20:43:48;;;;;;;36.80;20.50;;;;;;;-6.11;85.05;96389.41;4959765;28;20203;-83
2022/12/17 20:46:15;;;;;;;37.50;20.00;;;;;;;-6.08;86.10;96388.56;4943252;28;20205;-84
2022/12/17 20:48:41;;;;;;;31.30;19.77;;;;;;;-6.09;85.19;96389.41;4935975;29;20278;-82
2022/12/17 20:51:15;;;;;;;33.27;19.50;;;;;;;-6.07;85.88;96393.56;4964578;28;20400;-84
2022/12/17 20:53:41;;;;;;;33.37;19.10;;;;;;;-6.06;84.91;96385.13;4963542;28;20181;-85
2022/12/17 20:56:10;;;;;;;30.87;19.00;;;;;;;-6.13;85.41;96381.03;4948050;28;20217;-83
2022/12/17 20:58:36;;;;;;;36.37;19.40;;;;;;;-6.10;85.22;96373.38;4967786;28;20236;-84
2022/12/17 21:01:12;;;;;;;32.40;19.20;;;;;;;-6.14;85.13;96379.38;4984038;28;20175;-84
2022/12/17 21:03:38;;;;;;;35.63;21.37;;;;;;;-6.09;84.84;96380.13;4984090;28;20171;-84
2022/12/17 21:06:08;;;;;;;35.97;20.90;;;;;;;-6.11;85.50;96386.88;4967038;28;20289;-83
2022/12/17 21:08:35;;;;;;;34.87;20.33;;;;;;;-6.07;85.75;96386.00;4962780;28;20177;-84
2022/12/17 21:11:01;;;;;;;35.27;19.93;;;;;;;-6.11;84.60;96393.66;4939595;28;20196;-84
2022/12/17 21:13:29;;;;;;;34.97;20.97;;;;;;;-6.06;85.16;96386.81;4962358;28;20242;-85
2022/12/17 21:16:01;;;;;;;35.67;21.20;;;;;;;-6.13;85.27;96383.56;4943840;28;20225;-85
2022/12/17 21:18:28;;;;;;;37.43;20.80;;;;;;;-6.15;85.32;96382.75;4959531;28;20226;-83
2022/12/17 21:20:59;;;;;;;35.10;19.97;;;;;;;-6.17;85.21;96387.03;4932776;29;20564;-82
2022/12/17 21:23:25;;;;;;;35.33;19.13;;;;;;;-6.17;85.85;96383.66;4940782;28;20567;-84
2022/12/17 21:26:02;;;;;;;34.77;19.80;;;;;;;-6.14;85.43;96373.47;4934881;28;20218;-84
2022/12/17 21:28:28;;;;;;;34.37;19.13;;;;;;;-6.18;84.62;96377.78;4938207;28;20278;-81
2022/12/17 21:30:54;;;;;;;32.07;19.27;;;;;;;-6.19;85.58;96386.19;4939434;28;20224;-85
2022/12/17 21:33:20;;;;;;;36.70;20.67;;;;;;;-6.24;84.27;96387.97;4945680;28;20210;-84
2022/12/17 21:35:46;;;;;;;37.77;20.47;;;;;;;-6.24;85.02;96393.03;4963116;28;20240;-82
2022/12/17 21:38:11;;;;;;;32.53;19.53;;;;;;;-6.32;85.37;96387.28;4958482;28;20215;-82
2022/12/17 21:40:37;;;;;;;35.10;19.57;;;;;;;-6.30;84.73;96393.13;4939101;28;20198;-82
2022/12/17 21:43:05;;;;;;;40.50;19.60;;;;;;;-6.22;85.17;96393.00;4973194;28;20267;-83
2022/12/17 21:45:36;;;;;;;35.10;19.43;;;;;;;-6.30;84.99;96393.97;4950958;29;20239;-83
2022/12/17 21:48:03;;;;;;;37.90;19.37;;;;;;;-6.35;85.06;96399.97;4923568;29;20287;-83
2022/12/17 21:50:28;;;;;;;33.33;19.47;;;;;;;-6.31;85.17;96406.63;4922289;29;20644;-82
2022/12/17 21:52:53;;;;;;;32.30;19.67;;;;;;;-6.35;85.33;96399.97;4936206;29;20202;-82
2022/12/17 21:55:19;;;;;;;36.00;19.20;;;;;;;-6.34;84.65;96401.63;4938802;29;20215;-81
2022/12/17 21:57:44;;;;;;;30.43;18.17;;;;;;;-6.33;84.62;96406.66;4931345;29;20203;-81
2022/12/17 22:00:10;;;;;;;31.33;18.10;;;;;;;-6.31;84.59;96402.41;4939433;29;20192;-82
2022/12/17 22:02:35;;;;;;;33.13;19.97;;;;;;;-6.31;85.06;96394.00;4951022;29;20327;-82
2022/12/17 22:05:00;;;;;;;36.37;17.77;;;;;;;-6.28;84.30;96402.34;4939080;29;20290;-82
2022/12/17 22:07:25;;;;;;;30.73;17.30;;;;;;;-6.26;84.83;96398.97;4921335;29;20205;-83
2022/12/17 22:09:51;;;;;;;32.73;18.20;;;;;;;-6.26;85.24;96401.50;4921397;29;20195;-81
2022/12/17 22:15:00;;;;;;;32.63;18.83;;;;;;;-6.29;83.92;96410.78;4943541;29;20238;-83
2022/12/17 22:17:25;;;;;;;31.33;18.13;;;;;;;-6.28;84.36;96411.63;4924590;29;20720;-84
2022/12/17 22:19:51;;;;;;;35.93;19.47;;;;;;;-6.33;83.93;96416.78;4942147;29;20200;-83
2022/12/17 22:22:16;;;;;;;36.67;20.60;;;;;;;-6.28;83.90;96419.22;4919275;29;20230;-83
2022/12/17 22:24:41;;;;;;;35.13;18.63;;;;;;;-6.36;82.98;96421.88;4939156;29;20189;-82
2022/12/17 22:27:06;;;;;;;35.67;18.67;;;;;;;-6.41;84.05;96407.66;4937591;29;20195;-82
2022/12/17 22:35:00;;;;;;;34.37;18.67;;;;;;;-6.42;84.41;96398.41;4942586;29;20226;-83
2022/12/17 22:37:25;;;;;;;31.17;18.63;;;;;;;-6.37;84.47;96407.56;4934299;29;20193;-82
2022/12/17 22:39:50;;;;;;;36.53;20.17;;;;;;;-6.38;84.41;96412.63;4930391;29;20199;-83
2022/12/17 22:45:05;;;;;;;37.57;19.23;;;;;;;-6.35;84.07;96402.50;4901866;29;20246;-84
2022/12/17 22:47:31;;;;;;;35.80;19.87;;;;;;;-6.35;83.89;96399.97;4929247;29;20295;-82
2022/12/17 22:49:56;;;;;;;36.17;19.70;;;;;;;-6.41;83.99;96405.13;4930332;29;20590;-82
2022/12/17 22:52:21;;;;;;;32.63;19.20;;;;;;;-6.42;84.05;96408.50;4930820;29;20189;-81
2022/12/17 22:54:46;;;;;;;35.00;18.67;;;;;;;-6.43;83.68;96406.84;4923047;29;20192;-81
2022/12/17 22:57:12;;;;;;;35.53;19.53;;;;;;;-6.42;84.63;96404.28;4917076;29;20199;-85
2022/12/17 22:59:37;;;;;;;35.83;18.97;;;;;;;-6.45;83.96;96400.97;4931813;29;20192;-84
2022/12/17 23:02:02;;;;;;;33.73;19.33;;;;;;;-6.41;84.42;96398.38;4923036;29;20235;-84
2022/12/17 23:04:28;;;;;;;29.87;18.67;;;;;;;-6.39;84.01;96398.34;4931593;29;20287;-83
2022/12/17 23:06:53;;;;;;;35.13;18.77;;;;;;;-6.43;83.58;96404.31;4940262;29;20322;-83
2022/12/17 23:09:19;;;;;;;33.03;18.57;;;;;;;-6.43;82.95;96410.19;4946539;29;20195;-83
2022/12/17 23:11:45;;;;;;;37.83;19.73;;;;;;;-6.47;83.13;96410.25;4926009;29;20198;-83
2022/12/17 23:14:10;;;;;;;32.90;18.97;;;;;;;-6.56;83.72;96416.28;4944328;29;20529;-83
2022/12/17 23:16:39;;;;;;;37.00;19.20;;;;;;;-6.58;83.26;96416.31;4943769;29;20223;-84
2022/12/17 23:19:05;;;;;;;36.67;20.07;;;;;;;-6.53;83.51;96420.47;4926026;29;20180;-84
2022/12/17 23:21:30;;;;;;;37.30;20.27;;;;;;;-6.57;83.46;96418.00;4944738;29;20224;-84
2022/12/17 23:23:56;;;;;;;31.13;17.87;;;;;;;-6.62;83.45;96417.25;4928100;29;20185;-84
2022/12/17 23:26:30;;;;;;;29.80;18.20;;;;;;;-6.54;83.54;96421.31;4925457;29;20267;-84
2022/12/17 23:28:58;;;;;;;36.87;19.20;;;;;;;-6.54;83.31;96417.09;4944873;29;20240;-84
2022/12/17 23:31:24;;;;;;;36.97;18.87;;;;;;;-6.51;82.51;96418.75;4924983;29;20202;-84
2022/12/17 23:33:50;;;;;;;33.67;18.37;;;;;;;-6.53;82.52;96420.47;4944343;29;20231;-83
2022/12/17 23:36:20;;;;;;;32.77;19.03;;;;;;;-6.58;82.40;96418.84;4943550;29;20616;-82
2022/12/17 23:38:46;;;;;;;32.63;18.07;;;;;;;-6.61;82.45;96413.84;4927684;29;20196;-85
2022/12/17 23:41:16;;;;;;;32.40;18.90;;;;;;;-6.59;82.02;96404.56;4927409;29;20184;-84
2022/12/17 23:43:42;;;;;;;29.90;17.87;;;;;;;-6.59;83.24;96404.56;4927958;29;20651;-84
2022/12/17 23:46:09;;;;;;;31.07;17.53;;;;;;;-6.55;82.60;96407.84;4942198;29;20212;-82
2022/12/17 23:48:37;;;;;;;28.37;16.57;;;;;;;-6.54;82.98;96401.94;4926645;29;20551;-84
2022/12/17 23:51:03;;;;;;;33.07;17.63;;;;;;;-6.46;82.45;96414.44;4942187;29;20216;-83
2022/12/17 23:53:29;;;;;;;31.60;18.07;;;;;;;-6.51;82.50;96423.81;4941957;29;20184;-84
2022/12/17 23:55:55;;;;;;;33.23;18.37;;;;;;;-6.48;82.57;96419.53;4940367;29;20208;-83
2022/12/17 23:58:20;;;;;;;29.20;17.03;;;;;;;-6.46;82.26;96414.44;4923743;29;20196;-83
